Xin Dan Dong — BPBY — position and weather

sailwx.info

Track history (hours):
 
Tides and Currents Weather Stations Pressure Air Temp Water Temp Dewpoint Dewpoint Depression Visibility Wind Speed Wind Dir Waves Ship Positions

Xin Dan Dong

Last reported at 2017-Mar-31 09:46 UTC. Time now 2017-Apr-27 18:43 UTC.
Position N 31°06' E 122°27'.
Warning: this ship's position is 27 days out of date.

Length 263 m; draft 8.8 m.

Type: Cargo ship. MMSI: 413153000.

Date/timePositionNaut miles runAvg speedWind from/ knotsBaromVisibWave heightAir tempDewpointWater temp
2017-Mar-31 09:46N 31°06' E 122°27'415.0
2017-Mar-31 09:30N 31°06' E 122°22'1011.8
2017-Mar-31 08:41N 31°10' E 122°12'212.1
2017-Mar-31 08:31N 31°11' E 122°10'611.0
2017-Mar-31 08:00N 31°14' E 122°04'510.6
2017-Mar-31 07:31N 31°15' E 121°58'713.1
2017-Mar-31 07:01N 31°16' E 121°51'714.4
2017-Mar-31 06:30N 31°19' E 121°43'2 4.8
2017-Mar-31 05:59N 31°20' E 121°40'0 0.0
2017-Mar-31 04:35N 31°20' E 121°40'0 0.1
2017-Mar-31 04:32N 31°20' E 121°40'  
2017-Mar-28 20:05N 24°21' E 118°57'1015.9
2017-Mar-28 19:29N 24°14' E 118°49'1515.6
2017-Mar-28 18:33N 24°04' E 118°37'1615.3
2017-Mar-28 17:32N 23°53' E 118°25'1515.6
2017-Mar-28 16:33N 23°44' E 118°12'  
2017-Mar-25 00:33N 01°15' E 104°09'1817.8
2017-Mar-24 23:33N 01°11' E 103°51'9 8.8
2017-Mar-24 22:33N 01°17' E 103°45'1 1.0
2017-Mar-24 21:32N 01°17' E 103°46'0 0.0
2017-Mar-24 20:32N 01°17' E 103°46'0 0.0
2017-Mar-24 19:32N 01°17' E 103°46'0 0.0
2017-Mar-24 18:32N 01°17' E 103°46'0 0.0
2017-Mar-24 17:32N 01°17' E 103°46'0 0.0
2017-Mar-24 16:32N 01°17' E 103°46'0 0.0
2017-Mar-24 15:32N 01°17' E 103°46'0 0.0
2017-Mar-24 14:32N 01°17' E 103°46'0 0.0
2017-Mar-24 13:32N 01°17' E 103°46'0 0.0
2017-Mar-24 12:32N 01°17' E 103°46'0 0.0
2017-Mar-24 11:32N 01°17' E 103°46'0 0.0
2017-Mar-24 10:32N 01°17' E 103°46'0 0.0
2017-Mar-24 09:32N 01°17' E 103°46'0 0.0
2017-Mar-24 08:29N 01°17' E 103°46'0 0.0
2017-Mar-24 07:32N 01°17' E 103°46'0 0.0
2017-Mar-24 06:32N 01°17' E 103°46'0 0.0
2017-Mar-24 05:32N 01°17' E 103°46'0 0.0
2017-Mar-24 04:33N 01°17' E 103°46'1 1.4
2017-Mar-24 03:33N 01°17' E 103°45'7 7.1
2017-Mar-24 02:33N 01°12' E 103°39'1110.9
2017-Mar-24 01:33N 01°10' E 103°29'2 1.7
2017-Mar-24 00:33N 01°09' E 103°27'6 5.7
2017-Mar-23 23:33N 01°12' E 103°22'4510.3
2017-Mar-23 19:08N 01°39' E 102°45'812.6
2017-Mar-23 18:29N 01°42' E 102°38'1212.8
2017-Mar-23 17:32N 01°48' E 102°27'5213.2
2017-Mar-23 13:33N 02°19' E 101°44'  
Track history (hours):
 
Tides and Currents Weather Stations Pressure Air Temp Water Temp Dewpoint Dewpoint Depression Visibility Wind Speed Wind Dir Waves Ship Positions

Xin Dan Dong

Last reported at 2017-Mar-31 09:46 UTC. Time now 2017-Apr-27 18:43 UTC.
Position N 31°06' E 122°27'.
Warning: this ship's position is 27 days out of date.

Length 263 m; draft 8.8 m.

Type: Cargo ship. MMSI: 413153000.

Date/timePositionNaut miles runAvg speedWind from/ knotsBaromVisibWave heightAir tempDewpointWater temp
2017-Mar-31 09:46N 31°06' E 122°27'415.0
2017-Mar-31 09:30N 31°06' E 122°22'1011.8
2017-Mar-31 08:41N 31°10' E 122°12'212.1
2017-Mar-31 08:31N 31°11' E 122°10'611.0
2017-Mar-31 08:00N 31°14' E 122°04'510.6
2017-Mar-31 07:31N 31°15' E 121°58'713.1
2017-Mar-31 07:01N 31°16' E 121°51'714.4
2017-Mar-31 06:30N 31°19' E 121°43'2 4.8
2017-Mar-31 05:59N 31°20' E 121°40'0 0.0
2017-Mar-31 04:35N 31°20' E 121°40'0 0.1
2017-Mar-31 04:32N 31°20' E 121°40'  
2017-Mar-28 20:05N 24°21' E 118°57'1015.9
2017-Mar-28 19:29N 24°14' E 118°49'1515.6
2017-Mar-28 18:33N 24°04' E 118°37'1615.3
2017-Mar-28 17:32N 23°53' E 118°25'1515.6
2017-Mar-28 16:33N 23°44' E 118°12'  
2017-Mar-25 00:33N 01°15' E 104°09'1817.8
2017-Mar-24 23:33N 01°11' E 103°51'9 8.8
2017-Mar-24 22:33N 01°17' E 103°45'1 1.0
2017-Mar-24 21:32N 01°17' E 103°46'0 0.0
2017-Mar-24 20:32N 01°17' E 103°46'0 0.0
2017-Mar-24 19:32N 01°17' E 103°46'0 0.0
2017-Mar-24 18:32N 01°17' E 103°46'0 0.0
2017-Mar-24 17:32N 01°17' E 103°46'0 0.0
2017-Mar-24 16:32N 01°17' E 103°46'0 0.0
2017-Mar-24 15:32N 01°17' E 103°46'0 0.0
2017-Mar-24 14:32N 01°17' E 103°46'0 0.0
2017-Mar-24 13:32N 01°17' E 103°46'0 0.0
2017-Mar-24 12:32N 01°17' E 103°46'0 0.0
2017-Mar-24 11:32N 01°17' E 103°46'0 0.0
2017-Mar-24 10:32N 01°17' E 103°46'0 0.0
2017-Mar-24 09:32N 01°17' E 103°46'0 0.0
2017-Mar-24 08:29N 01°17' E 103°46'0 0.0
2017-Mar-24 07:32N 01°17' E 103°46'0 0.0
2017-Mar-24 06:32N 01°17' E 103°46'0 0.0
2017-Mar-24 05:32N 01°17' E 103°46'0 0.0
2017-Mar-24 04:33N 01°17' E 103°46'1 1.4
2017-Mar-24 03:33N 01°17' E 103°45'7 7.1
2017-Mar-24 02:33N 01°12' E 103°39'1110.9
2017-Mar-24 01:33N 01°10' E 103°29'2 1.7
2017-Mar-24 00:33N 01°09' E 103°27'6 5.7
2017-Mar-23 23:33N 01°12' E 103°22'4510.3
2017-Mar-23 19:08N 01°39' E 102°45'812.6
2017-Mar-23 18:29N 01°42' E 102°38'1212.8
2017-Mar-23 17:32N 01°48' E 102°27'5213.2
2017-Mar-23 13:33N 02°19' E 101°44'  

Dump ship's entire track history